Time;durP1;ratioP1;P1;durP2;ratioP2;P2;SDS_P1;SDS_P2;PMS_P1;PMS_P2;Temp;Humidity;BMP_temperature;BMP_pressure;BME280_temperature;BME280_humidity;BME280_pressure;Samples;Min_cycle;Max_cycle;Signal;HPM_P1;HPM_P2
2022/10/04 00:00:12;;;;;;;9.13;2.95;;;8.70;99.90;;;;;;5025672;28;20045;-79
2022/10/04 00:02:43;;;;;;;8.50;2.92;;;8.60;99.90;;;;;;5065178;22;20128;-86
2022/10/04 00:05:16;;;;;;;7.47;3.05;;;8.60;99.90;;;;;;5052202;28;20075;-87
2022/10/04 00:08:23;;;;;;;5.47;2.80;;;8.60;99.90;;;;;;5053143;28;20037;-86
2022/10/04 00:11:04;;;;;;;7.13;3.05;;;8.50;99.90;;;;;;5053998;28;20021;-87
2022/10/04 00:13:31;;;;;;;5.80;2.72;;;8.60;99.90;;;;;;5053756;28;20545;-86
2022/10/04 00:15:57;;;;;;;8.52;3.25;;;8.60;99.90;;;;;;5036098;28;20024;-86
2022/10/04 00:18:28;;;;;;;10.02;3.00;;;8.50;99.90;;;;;;5056763;28;20017;-86
2022/10/04 00:20:58;;;;;;;7.05;3.13;;;8.50;99.90;;;;;;5045483;28;20020;-86
2022/10/04 00:23:24;;;;;;;5.80;2.72;;;8.50;99.90;;;;;;5035188;28;20032;-86
2022/10/04 00:25:51;;;;;;;6.93;2.83;;;8.50;99.90;;;;;;5033261;28;20021;-87
2022/10/04 00:28:20;;;;;;;7.28;3.20;;;8.80;99.90;;;;;;5034429;28;20045;-86
2022/10/04 00:31:10;;;;;;;13.07;3.25;;;8.90;99.90;;;;;;5036570;28;20013;-86
2022/10/04 00:33:43;;;;;;;8.52;3.03;;;8.50;99.90;;;;;;5052964;28;20068;-85
2022/10/04 00:36:23;;;;;;;5.30;2.67;;;8.50;99.90;;;;;;5035891;28;20402;-86
2022/10/04 00:39:07;;;;;;;6.57;2.92;;;8.60;99.90;;;;;;5052486;28;20017;-87
2022/10/04 00:41:39;;;;;;;12.25;3.10;;;8.40;99.90;;;;;;5054816;28;20028;-86
2022/10/04 00:44:09;;;;;;;;;;;8.40;99.90;;;;;;5040514;28;20025;-87
2022/10/04 00:46:39;;;;;;;5.55;2.20;;;8.40;99.90;;;;;;5043377;28;19984;-86
2022/10/04 00:49:08;;;;;;;7.80;2.53;;;9.60;99.90;;;;;;5059921;28;20092;-86
2022/10/04 00:51:40;;;;;;;5.88;2.65;;;8.40;99.90;;;;;;5047635;28;20036;-86
2022/10/04 00:54:21;;;;;;;5.20;2.40;;;8.70;99.90;;;;;;5031191;28;20520;-87
2022/10/04 00:57:07;;;;;;;5.28;2.38;;;8.30;99.90;;;;;;5035520;28;20020;-86
2022/10/04 00:59:41;;;;;;;6.65;2.83;;;8.30;99.90;;;;;;5030574;28;20024;-86
2022/10/04 01:02:19;;;;;;;5.05;2.35;;;8.30;99.90;;;;;;5054369;28;20025;-86
2022/10/04 01:04:58;;;;;;;5.68;2.90;;;8.20;99.90;;;;;;5040935;28;20055;-86
2022/10/04 01:07:48;;;;;;;6.63;3.15;;;8.20;99.90;;;;;;5032796;28;20029;-87
2022/10/04 01:10:21;;;;;;;6.07;2.75;;;8.20;99.90;;;;;;5044918;28;20082;-87
2022/10/04 01:13:14;;;;;;;7.07;2.30;;;8.20;99.90;;;;;;5035944;28;20091;-87
2022/10/04 01:15:49;;;;;;;8.55;3.00;;;8.20;99.90;;;;;;5035254;28;20029;-86
2022/10/04 01:18:18;;;;;;;6.80;2.90;;;8.20;99.90;;;;;;5052397;28;20036;-87
2022/10/04 01:21:07;;;;;;;6.68;2.78;;;8.20;99.90;;;;;;5037236;28;20405;-86
2022/10/04 01:23:32;;;;;;;6.22;2.63;;;8.20;99.90;;;;;;5053765;28;20124;-86
2022/10/04 01:25:58;;;;;;;6.03;2.63;;;8.10;99.90;;;;;;5039116;28;20476;-87
2022/10/04 01:28:25;;;;;;;4.60;2.25;;;8.10;99.90;;;;;;5035608;28;20227;-87
2022/10/04 01:30:51;;;;;;;6.60;2.47;;;8.10;99.90;;;;;;5060237;28;20029;-87
2022/10/04 01:33:18;;;;;;;4.45;2.15;;;8.10;99.90;;;;;;5036636;28;20118;-86
2022/10/04 01:35:43;;;;;;;5.25;2.08;;;8.50;99.90;;;;;;5034712;28;20901;-86
2022/10/04 01:38:11;;;;;;;5.15;2.25;;;8.00;99.90;;;;;;5035818;28;20028;-86
2022/10/04 01:40:46;;;;;;;6.93;2.42;;;8.40;99.90;;;;;;5040920;28;20126;-86
2022/10/04 01:43:20;;;;;;;6.30;2.60;;;8.00;99.90;;;;;;5038207;28;20032;-86
2022/10/04 01:45:52;;;;;;;5.43;2.20;;;7.90;99.90;;;;;;5052647;28;20490;-86
2022/10/04 01:48:23;;;;;;;4.28;1.98;;;7.90;99.90;;;;;;5034706;28;20017;-87
2022/10/04 01:51:06;;;;;;;5.57;2.33;;;8.10;99.90;;;;;;5041363;28;20048;-86
2022/10/04 01:53:46;;;;;;;4.50;1.92;;;8.00;99.90;;;;;;5059200;28;20028;-86
2022/10/04 01:56:24;;;;;;;3.67;1.90;;;7.90;99.90;;;;;;5060264;28;20024;-86
2022/10/04 01:59:00;;;;;;;5.07;2.35;;;7.90;99.90;;;;;;5056889;28;20178;-86
2022/10/04 02:01:32;;;;;;;5.90;1.85;;;7.90;99.90;;;;;;5036530;28;20473;-86
2022/10/04 02:04:09;;;;;;;6.90;2.05;;;7.90;99.90;;;;;;5032582;28;20036;-86
2022/10/04 02:06:39;;;;;;;5.78;2.15;;;7.80;99.90;;;;;;5051646;28;20428;-86
2022/10/04 02:09:25;;;;;;;4.47;1.70;;;7.80;99.90;;;;;;5052847;28;20017;-86
2022/10/04 02:11:52;;;;;;;6.25;2.50;;;7.80;99.90;;;;;;5053341;28;20024;-86
2022/10/04 02:14:24;;;;;;;4.50;2.03;;;8.30;99.90;;;;;;5033497;28;20120;-86
2022/10/04 02:16:52;;;;;;;4.50;2.08;;;7.70;99.90;;;;;;5027024;28;20508;-86
2022/10/04 02:19:24;;;;;;;4.85;2.15;;;7.70;99.90;;;;;;5038661;28;20540;-86
2022/10/04 02:21:51;;;;;;;4.28;1.83;;;7.70;99.90;;;;;;5042337;28;20033;-86
2022/10/04 02:24:18;;;;;;;4.13;2.03;;;7.70;99.90;;;;;;5039164;28;20141;-86
2022/10/04 02:26:51;;;;;;;5.35;2.30;;;7.70;99.90;;;;;;5049674;28;20140;-86
2022/10/04 02:29:20;;;;;;;3.47;2.00;;;7.60;99.90;;;;;;5037498;28;20492;-87
2022/10/04 02:34:34;;;;;;;5.07;2.07;;;7.60;99.90;;;;;;5052965;28;20094;-86
2022/10/04 02:37:04;;;;;;;4.90;1.95;;;9.00;99.90;;;;;;5052977;28;20025;-86
2022/10/04 02:39:37;;;;;;;5.45;2.30;;;7.60;99.90;;;;;;5055169;28;20025;-86
2022/10/04 02:42:08;;;;;;;6.53;2.25;;;7.60;99.90;;;;;;5039350;28;20025;-86
2022/10/04 02:44:45;;;;;;;4.97;2.33;;;7.60;99.90;;;;;;5038963;28;20119;-86
2022/10/04 02:47:28;;;;;;;10.70;2.33;;;7.60;99.90;;;;;;5055534;28;20017;-86
2022/10/04 02:49:58;;;;;;;4.50;2.25;;;7.60;99.90;;;;;;5031827;28;20017;-86
2022/10/04 02:52:41;;;;;;;4.82;2.17;;;7.50;99.90;;;;;;5053854;28;20029;-86
2022/10/04 02:55:28;;;;;;;6.28;2.97;;;7.70;99.90;;;;;;5034737;28;20028;-86
2022/10/04 02:57:57;;;;;;;3.17;1.52;;;7.50;99.90;;;;;;5049804;28;20110;-86
2022/10/04 03:00:31;;;;;;;6.20;2.08;;;7.50;99.90;;;;;;5035700;28;20028;-87
2022/10/04 03:03:23;;;;;;;3.83;1.63;;;7.60;99.90;;;;;;5030806;28;20228;-87
2022/10/04 03:06:08;;;;;;;4.40;1.70;;;7.50;99.90;;;;;;5049157;28;20032;-87
2022/10/04 03:08:57;;;;;;;4.97;1.90;;;7.50;99.90;;;;;;5069316;28;20103;-86
2022/10/04 03:11:28;;;;;;;5.05;2.33;;;7.50;99.90;;;;;;5041980;28;20024;-87
2022/10/04 03:13:57;;;;;;;5.68;2.03;;;7.50;99.90;;;;;;5037058;28;20378;-87
2022/10/04 03:16:24;;;;;;;5.20;2.30;;;7.50;99.90;;;;;;5055217;28;20078;-87
2022/10/04 03:18:54;;;;;;;5.85;2.38;;;7.40;99.90;;;;;;5035391;28;20443;-87
2022/10/04 03:21:21;;;;;;;4.22;1.92;;;7.50;99.90;;;;;;5037039;28;20033;-87
2022/10/04 03:23:50;;;;;;;3.65;1.60;;;7.40;99.90;;;;;;5037583;28;20054;-87
2022/10/04 03:26:42;;;;;;;5.18;1.83;;;7.40;99.90;;;;;;5036278;28;20036;-88
2022/10/04 03:29:10;;;;;;;4.00;2.03;;;7.50;99.90;;;;;;5055084;28;20017;-87
2022/10/04 03:31:42;;;;;;;3.40;1.50;;;7.40;99.90;;;;;;5056438;28;20607;-86
2022/10/04 03:34:20;;;;;;;4.63;1.45;;;7.40;99.90;;;;;;5038115;28;20052;-87
2022/10/04 03:36:48;;;;;;;3.45;1.63;;;7.40;99.90;;;;;;5035379;28;20134;-86
2022/10/04 03:39:29;;;;;;;3.58;1.70;;;7.40;99.90;;;;;;5035889;28;20032;-86
2022/10/04 03:41:56;;;;;;;4.65;1.80;;;7.40;99.90;;;;;;5035929;28;20017;-87
2022/10/04 03:44:22;;;;;;;3.75;1.45;;;7.50;99.90;;;;;;5054629;28;20024;-88
2022/10/04 03:46:48;;;;;;;3.63;1.58;;;7.30;99.90;;;;;;5033713;28;20018;-87
2022/10/04 03:49:22;;;;;;;3.88;1.52;;;7.30;99.90;;;;;;5049954;28;20505;-87
2022/10/04 03:51:49;;;;;;;4.25;1.70;;;7.30;99.90;;;;;;5030171;28;20516;-86
2022/10/04 03:54:22;;;;;;;6.23;2.07;;;7.30;99.90;;;;;;5035968;28;20030;-87
2022/10/04 03:56:51;;;;;;;4.32;1.60;;;7.80;99.90;;;;;;5038961;28;20428;-87
2022/10/04 03:59:17;;;;;;;4.15;1.63;;;7.30;99.90;;;;;;5032429;28;20031;-87
2022/10/04 04:01:54;;;;;;;4.27;1.50;;;7.20;99.90;;;;;;5045980;28;20028;-87
2022/10/04 04:04:39;;;;;;;4.03;1.90;;;7.30;99.90;;;;;;5032606;28;20032;-86
2022/10/04 04:07:19;;;;;;;5.57;1.97;;;7.30;99.90;;;;;;5028988;28;20021;-86
2022/10/04 04:10:15;;;;;;;4.07;1.77;;;7.30;99.90;;;;;;5041246;28;20016;-87
2022/10/04 04:13:00;;;;;;;4.30;1.63;;;7.30;99.90;;;;;;5034899;28;20053;-87
2022/10/04 04:15:29;;;;;;;2.75;1.40;;;7.30;99.90;;;;;;5026906;28;20112;-87
2022/10/04 04:18:00;;;;;;;3.53;1.92;;;7.20;99.90;;;;;;5036947;28;20374;-87
2022/10/04 04:20:37;;;;;;;5.97;2.15;;;7.20;99.90;;;;;;5055066;28;20546;-87
2022/10/04 04:23:18;;;;;;;3.58;1.83;;;7.60;99.90;;;;;;5054439;28;20032;-87
2022/10/04 04:25:48;;;;;;;4.07;1.70;;;7.20;99.90;;;;;;5036316;28;20028;-87
2022/10/04 04:28:26;;;;;;;3.75;1.52;;;7.20;99.90;;;;;;5042853;28;20024;-86
2022/10/04 04:31:16;;;;;;;5.67;1.80;;;7.20;99.90;;;;;;5034902;28;20508;-87
2022/10/04 04:33:58;;;;;;;3.92;1.48;;;7.50;99.90;;;;;;5026254;28;20041;-87
2022/10/04 04:36:24;;;;;;;4.22;1.55;;;7.50;99.90;;;;;;5034208;28;20036;-87
2022/10/04 04:41:34;;;;;;;4.00;1.95;;;7.20;99.90;;;;;;5056484;28;20032;-87
2022/10/04 04:44:01;;;;;;;4.70;1.63;;;7.30;99.90;;;;;;5073602;28;20024;-86
2022/10/04 04:46:27;;;;;;;4.20;1.48;;;7.10;99.90;;;;;;5040610;28;20544;-86
2022/10/04 04:49:01;;;;;;;4.00;1.75;;;7.00;99.90;;;;;;5051322;28;20444;-86
2022/10/04 04:51:31;;;;;;;4.43;2.00;;;7.10;99.90;;;;;;5036413;28;20043;-86
2022/10/04 04:54:01;;;;;;;4.10;1.67;;;6.90;99.90;;;;;;5055974;28;20033;-87
2022/10/04 04:56:32;;;;;;;5.13;1.92;;;7.00;99.90;;;;;;5055319;28;20017;-86
2022/10/04 04:59:05;;;;;;;3.97;1.83;;;7.50;99.90;;;;;;5030553;28;20437;-87
2022/10/04 05:01:43;;;;;;;4.57;1.93;;;7.00;99.90;;;;;;5036891;28;20452;-87
2022/10/04 05:04:25;;;;;;;3.17;1.50;;;7.30;99.90;;;;;;5054571;28;20021;-86
2022/10/04 05:07:05;;;;;;;4.32;2.05;;;7.00;99.90;;;;;;5036189;28;20095;-87
2022/10/04 05:09:34;;;;;;;6.43;2.33;;;7.20;99.90;;;;;;5036994;28;20061;-87
2022/10/04 05:12:24;;;;;;;4.90;1.90;;;7.40;99.90;;;;;;5050662;28;20031;-87
2022/10/04 05:14:51;;;;;;;4.60;2.13;;;7.00;99.90;;;;;;5040737;28;20024;-86
2022/10/04 05:17:23;;;;;;;5.20;2.13;;;7.40;99.90;;;;;;5058606;28;20083;-88
2022/10/04 05:19:51;;;;;;;5.40;1.85;;;7.00;99.90;;;;;;5041353;28;20056;-86
2022/10/04 05:22:22;;;;;;;4.80;1.90;;;7.50;99.90;;;;;;5060266;28;20029;-85
2022/10/04 05:24:55;;;;;;;5.37;2.30;;;7.50;99.90;;;;;;5047728;28;20021;-87
2022/10/04 05:27:38;;;;;;;4.30;1.83;;;7.40;99.90;;;;;;5048188;28;20120;-88
2022/10/04 05:30:18;;;;;;;6.17;1.90;;;7.10;99.90;;;;;;5041145;28;20060;-88
2022/10/04 05:33:03;;;;;;;6.63;1.77;;;7.10;99.90;;;;;;5038457;28;20112;-88
2022/10/04 05:35:59;;;;;;;4.40;1.73;;;7.10;99.90;;;;;;5038485;28;20542;-90
2022/10/04 05:38:43;;;;;;;4.97;2.00;;;7.10;99.90;;;;;;5043720;28;20131;-88
2022/10/04 05:41:41;;;;;;;5.03;2.00;;;7.10;99.90;;;;;;5040511;28;20517;-90
2022/10/04 05:44:30;;;;;;;4.25;2.00;;;7.10;99.90;;;;;;5040390;28;20036;-89
2022/10/04 05:47:05;;;;;;;4.63;1.75;;;7.20;99.90;;;;;;5036440;28;20028;-89
2022/10/04 05:49:39;;;;;;;5.83;1.80;;;7.30;99.90;;;;;;5040464;28;20536;-89
2022/10/04 05:52:14;;;;;;;6.03;1.83;;;7.30;99.90;;;;;;5048295;28;20127;-90
2022/10/04 05:54:40;;;;;;;3.15;1.45;;;7.40;99.90;;;;;;5046152;28;20703;-89
2022/10/04 05:57:38;;;;;;;3.50;1.40;;;7.40;99.90;;;;;;5036755;28;20025;-89
2022/10/04 06:00:22;;;;;;;4.95;2.00;;;7.40;99.90;;;;;;5043427;28;20024;-89
2022/10/04 06:03:12;;;;;;;4.80;1.85;;;7.40;99.90;;;;;;5061780;22;20048;-84
2022/10/04 06:05:56;;;;;;;4.77;1.80;;;7.40;99.90;;;;;;5068380;28;20033;-84
2022/10/04 06:09:00;;;;;;;4.45;1.83;;;7.40;99.90;;;;;;5072311;28;20082;-84
2022/10/04 06:11:34;;;;;;;5.27;2.10;;;7.40;99.90;;;;;;5058029;28;20165;-84
2022/10/04 06:14:33;;;;;;;4.27;2.00;;;7.40;99.90;;;;;;5063005;28;20024;-85
2022/10/04 06:17:33;;;;;;;3.50;1.83;;;7.40;99.90;;;;;;5068477;28;20072;-84
2022/10/04 06:20:10;;;;;;;4.03;1.70;;;7.40;99.90;;;;;;5067794;28;20358;-82
2022/10/04 06:22:44;;;;;;;3.78;1.77;;;7.40;99.90;;;;;;5066374;28;20559;-82
2022/10/04 06:25:18;;;;;;;4.15;1.70;;;7.40;99.90;;;;;;5070000;28;20073;-81
2022/10/04 06:27:52;;;;;;;4.80;1.80;;;7.50;99.90;;;;;;5067781;28;20416;-82
2022/10/04 06:30:19;;;;;;;3.65;1.63;;;7.50;99.90;;;;;;5063774;28;20013;-82
2022/10/04 06:33:09;;;;;;;3.40;1.77;;;7.40;99.90;;;;;;5069024;28;20032;-82
2022/10/04 06:35:53;;;;;;;4.13;1.52;;;7.40;99.90;;;;;;5065986;28;20393;-82
2022/10/04 06:38:45;;;;;;;3.97;1.93;;;7.50;99.90;;;;;;5068060;28;20040;-82
2022/10/04 06:41:22;;;;;;;5.45;1.83;;;7.40;99.90;;;;;;5073206;28;20031;-82
2022/10/04 06:44:07;;;;;;;4.03;1.60;;;7.40;99.90;;;;;;5069455;28;20016;-82
2022/10/04 06:47:00;;;;;;;3.70;1.90;;;7.50;99.90;;;;;;5070651;28;20021;-82
2022/10/04 06:49:35;;;;;;;5.70;1.90;;;7.50;99.90;;;;;;5070219;28;20027;-82
2022/10/04 06:52:22;;;;;;;5.05;2.00;;;7.60;99.90;;;;;;5074982;28;20047;-82
2022/10/04 06:55:02;;;;;;;7.73;2.37;;;7.70;99.90;;;;;;5071143;28;20029;-82
2022/10/04 06:57:52;;;;;;;5.07;1.92;;;7.70;99.90;;;;;;5072531;28;20107;-82
2022/10/04 07:00:30;;;;;;;3.83;2.00;;;7.70;99.90;;;;;;5072123;28;20513;-82
2022/10/04 07:03:25;;;;;;;5.15;2.20;;;7.70;99.90;;;;;;5086672;28;20108;-83
2022/10/04 07:06:02;;;;;;;4.63;1.93;;;7.70;99.90;;;;;;5072973;28;20114;-83
2022/10/04 07:08:46;;;;;;;7.33;2.10;;;7.80;99.90;;;;;;5079030;28;20025;-83
2022/10/04 07:11:44;;;;;;;5.20;2.05;;;7.80;99.90;;;;;;5085479;28;20113;-83
2022/10/04 07:14:19;;;;;;;7.70;2.17;;;7.90;99.90;;;;;;5070759;28;20080;-83
2022/10/04 07:16:49;;;;;;;3.22;1.52;;;8.00;99.90;;;;;;5063339;28;20032;-83
2022/10/04 07:19:18;;;;;;;5.95;2.08;;;8.20;99.90;;;;;;5071949;28;20028;-83
2022/10/04 07:21:55;;;;;;;5.30;2.00;;;8.30;99.90;;;;;;5070551;28;20531;-83
2022/10/04 07:24:37;;;;;;;6.05;2.20;;;8.30;99.90;;;;;;5055053;28;20036;-84
2022/10/04 07:27:06;;;;;;;;;;;8.50;99.90;;;;;;5076023;28;20023;-83
2022/10/04 07:29:35;;;;;;;5.03;1.90;;;8.60;99.90;;;;;;5069245;28;19912;-82
2022/10/04 07:32:04;;;;;;;4.68;1.85;;;8.70;99.90;;;;;;5068054;28;20117;-81
2022/10/04 07:34:36;;;;;;;4.20;1.80;;;8.70;99.90;;;;;;5071018;28;20476;-82
2022/10/04 07:37:13;;;;;;;3.63;1.63;;;8.90;99.90;;;;;;5070824;28;20067;-82
2022/10/04 07:39:59;;;;;;;5.93;2.13;;;9.00;99.90;;;;;;5072908;28;20036;-82
2022/10/04 07:42:34;;;;;;;5.00;1.45;;;9.10;99.90;;;;;;5069281;28;20033;-82
2022/10/04 07:45:21;;;;;;;4.93;1.98;;;9.10;99.90;;;;;;5070273;28;20052;-82
2022/10/04 07:47:47;;;;;;;4.47;1.60;;;9.20;99.90;;;;;;5073651;28;20053;-81
2022/10/04 07:50:27;;;;;;;5.65;2.00;;;9.30;99.90;;;;;;5073630;28;20029;-81
2022/10/04 07:53:06;;;;;;;4.07;1.70;;;9.30;99.90;;;;;;5070949;28;20025;-80
2022/10/04 07:55:55;;;;;;;4.65;2.00;;;9.40;99.90;;;;;;5073401;28;20024;-81
2022/10/04 07:58:25;;;;;;;3.42;1.63;;;9.50;99.90;;;;;;5073916;28;20025;-80
2022/10/04 08:01:23;;;;;;;4.65;2.05;;;9.60;99.90;;;;;;5074864;28;20013;-81
2022/10/04 08:04:17;;;;;;;5.00;2.00;;;9.70;99.90;;;;;;5069480;28;20032;-81
2022/10/04 08:07:01;;;;;;;5.30;2.35;;;9.60;99.90;;;;;;5073069;28;20039;-80
2022/10/04 08:10:03;;;;;;;5.85;1.92;;;9.70;99.90;;;;;;5074356;28;20511;-81
2022/10/04 08:12:51;;;;;;;6.18;2.00;;;9.70;99.90;;;;;;5053927;28;20033;-81
2022/10/04 08:15:42;;;;;;;8.20;1.90;;;9.70;99.90;;;;;;5074173;28;20031;-81
2022/10/04 08:18:08;;;;;;;3.83;1.90;;;9.70;99.90;;;;;;5070284;28;20082;-81
2022/10/04 08:21:00;;;;;;;7.28;2.20;;;9.60;99.90;;;;;;5076366;28;20447;-81
2022/10/04 08:23:45;;;;;;;3.92;1.63;;;9.40;99.90;;;;;;5070595;28;20092;-81
2022/10/04 08:26:38;;;;;;;4.75;2.08;;;9.30;99.90;;;;;;5076844;28;20016;-81
2022/10/04 08:31:56;;;;;;;4.47;2.40;;;9.50;99.90;;;;;;5077512;28;20067;-81
2022/10/04 08:34:51;;;;;;;4.65;1.98;;;9.70;99.90;;;;;;5080025;28;20029;-81
2022/10/04 08:37:45;;;;;;;6.47;2.10;;;9.80;99.90;;;;;;5078183;28;20166;-81
2022/10/04 08:41:04;;;;;;;13.32;1.90;;;9.70;99.90;;;;;;5078911;28;20120;-80
2022/10/04 08:44:14;;;;;;;4.97;1.88;;;9.50;99.90;;;;;;4991832;28;20081;-81
2022/10/04 08:47:21;;;;;;;8.00;1.80;;;9.50;99.90;;;;;;5077944;28;20020;-81
2022/10/04 08:50:07;;;;;;;4.72;2.05;;;9.80;99.90;;;;;;5072944;28;20012;-80
2022/10/04 08:52:58;;;;;;;4.68;2.30;;;9.90;99.90;;;;;;5080955;28;20089;-81
2022/10/04 08:56:05;;;;;;;3.85;1.52;;;10.00;99.90;;;;;;5080900;28;20444;-80
2022/10/04 08:59:06;;;;;;;4.00;1.90;;;10.10;99.90;;;;;;5076259;28;20033;-81
2022/10/04 09:02:05;;;;;;;4.60;1.98;;;10.20;99.90;;;;;;5042678;28;20049;-81
2022/10/04 09:04:50;;;;;;;3.70;1.60;;;10.30;99.90;;;;;;5076027;28;20035;-81
2022/10/04 09:07:40;;;;;;;3.58;1.60;;;10.50;99.90;;;;;;5067902;28;20430;-81
2022/10/04 09:10:47;;;;;;;5.13;2.10;;;10.40;99.90;;;;;;5079519;28;20017;-81
2022/10/04 09:13:44;;;;;;;4.38;1.95;;;10.60;99.90;;;;;;5071076;28;20040;-81
2022/10/04 09:16:16;;;;;;;4.03;1.80;;;10.90;99.90;;;;;;5072658;28;20031;-80
2022/10/04 09:19:04;;;;;;;3.25;1.33;;;11.10;99.90;;;;;;5074678;28;20024;-80
2022/10/04 09:21:42;;;;;;;4.47;1.95;;;11.20;99.90;;;;;;5073443;28;20044;-81
2022/10/04 09:24:27;;;;;;;7.35;1.77;;;11.40;99.90;;;;;;5077139;28;20067;-81
2022/10/04 09:27:29;;;;;;;3.55;1.38;;;11.40;99.90;;;;;;5075514;28;20036;-82
2022/10/04 09:30:10;;;;;;;3.78;1.55;;;11.50;99.90;;;;;;5067582;28;20612;-82
2022/10/04 09:32:58;;;;;;;2.72;1.55;;;11.50;99.90;;;;;;5068207;28;20172;-82
2022/10/04 09:35:30;;;;;;;3.15;1.33;;;11.70;99.90;;;;;;5066154;28;20052;-82
2022/10/04 09:38:13;;;;;;;2.53;1.15;;;11.70;99.90;;;;;;5073002;28;20055;-81
2022/10/04 09:41:09;;;;;;;5.60;1.40;;;11.70;99.90;;;;;;5073234;28;20101;-82
2022/10/04 09:43:34;;;;;;;3.60;1.63;;;11.60;99.90;;;;;;5088401;28;20115;-82
2022/10/04 09:46:00;;;;;;;4.60;1.50;;;11.80;99.90;;;;;;5072562;28;20092;-82
2022/10/04 09:49:12;;;;;;;2.55;1.38;;;12.10;99.90;;;;;;5074854;28;20356;-81
2022/10/04 09:52:04;;;;;;;3.70;1.48;;;12.30;99.90;;;;;;5067870;28;20029;-82
2022/10/04 09:55:08;;;;;;;2.67;1.20;;;12.60;99.90;;;;;;5076188;28;20378;-82
2022/10/04 09:58:04;;;;;;;2.30;1.08;;;12.70;99.90;;;;;;5077577;28;20568;-81
2022/10/04 10:00:48;;;;;;;2.75;1.00;;;13.00;99.90;;;;;;5074786;28;20103;-82
2022/10/04 10:03:35;;;;;;;3.22;1.00;;;13.20;99.90;;;;;;5068258;28;20073;-82
2022/10/04 10:06:25;;;;;;;1.52;0.80;;;13.20;99.90;;;;;;5070520;28;20500;-82
2022/10/04 10:09:20;;;;;;;4.45;0.75;;;13.10;99.90;;;;;;5071854;28;20028;-82
2022/10/04 10:15:21;;;;;;;2.72;1.08;;;13.20;99.90;;;;;;5076934;28;20063;-82
2022/10/04 10:18:26;;;;;;;1.90;0.88;;;13.30;99.90;;;;;;5073522;28;20083;-82
2022/10/04 10:21:11;;;;;;;2.58;0.90;;;13.50;99.90;;;;;;5062633;28;20032;-82
2022/10/04 10:23:52;;;;;;;3.63;0.82;;;13.50;99.90;;;;;;5075711;28;20450;-83
2022/10/04 10:26:39;;;;;;;3.17;1.00;;;13.60;99.90;;;;;;5073306;28;20019;-82
2022/10/04 10:29:17;;;;;;;2.42;1.20;;;13.60;99.90;;;;;;5068578;28;20025;-83
2022/10/04 10:32:03;;;;;;;3.88;1.00;;;13.80;99.90;;;;;;5069600;28;20039;-83
2022/10/04 10:34:51;;;;;;;2.58;0.80;;;13.90;99.90;;;;;;5069613;28;20111;-83
2022/10/04 10:37:48;;;;;;;4.03;1.10;;;14.00;99.90;;;;;;5060598;28;20035;-81
2022/10/04 10:40:35;;;;;;;4.78;1.17;;;14.10;99.90;;;;;;5053442;28;20032;-82
2022/10/04 10:43:36;;;;;;;2.38;1.00;;;14.20;99.90;;;;;;5079132;28;20107;-81
2022/10/04 10:46:06;;;;;;;1.73;0.77;;;14.30;99.90;;;;;;5077467;28;20103;-83
2022/10/04 10:48:49;;;;;;;2.38;0.80;;;14.30;99.90;;;;;;5077788;28;20032;-82
2022/10/04 10:51:34;;;;;;;2.80;1.20;;;14.50;99.90;;;;;;5073553;28;20024;-82
2022/10/04 10:54:30;;;;;;;2.28;0.93;;;14.70;99.90;;;;;;5073782;28;20033;-82
2022/10/04 10:57:33;;;;;;;1.90;0.85;;;14.90;99.90;;;;;;5076104;28;20024;-82
2022/10/04 11:00:19;;;;;;;3.20;1.38;;;15.00;99.90;;;;;;5072426;28;20021;-81
2022/10/04 11:03:20;;;;;;;9.00;1.05;;;14.90;99.90;;;;;;5075243;28;20039;-82
2022/10/04 11:06:27;;;;;;;5.03;1.45;;;14.70;99.90;;;;;;5081580;28;20017;-82
2022/10/04 11:08:55;;;;;;;2.13;0.85;;;14.80;99.90;;;;;;5076360;28;20040;-82
2022/10/04 11:11:27;;;;;;;2.92;1.00;;;15.00;99.90;;;;;;5080623;28;20036;-81
2022/10/04 11:14:27;;;;;;;4.32;0.90;;;15.20;99.90;;;;;;5081922;28;20103;-82
2022/10/04 11:17:22;;;;;;;2.25;0.90;;;15.40;99.90;;;;;;5073859;28;20063;-83
2022/10/04 11:20:25;;;;;;;2.10;0.60;;;15.60;99.90;;;;;;5060223;28;20029;-84
2022/10/04 11:23:09;;;;;;;2.28;0.70;;;15.60;99.90;;;;;;5071308;28;20074;-83
2022/10/04 11:25:50;;;;;;;2.70;0.80;;;15.80;99.90;;;;;;5071825;28;20025;-83
2022/10/04 11:28:45;;;;;;;1.17;0.60;;;16.00;99.90;;;;;;5067885;28;20017;-84
2022/10/04 11:31:41;;;;;;;3.03;0.93;;;16.10;99.90;;;;;;5066153;28;20024;-83
2022/10/04 11:34:40;;;;;;;1.23;0.70;;;16.20;99.90;;;;;;5074193;28;20472;-83
2022/10/04 11:37:43;;;;;;;1.60;0.73;;;16.20;99.90;;;;;;5065883;28;20027;-83
2022/10/04 11:40:15;;;;;;;1.15;0.50;;;16.50;99.90;;;;;;5067820;28;20573;-83
2022/10/04 11:43:09;;;;;;;3.33;0.70;;;16.70;99.90;;;;;;5073231;28;20036;-85
2022/10/04 11:45:37;;;;;;;1.75;0.80;;;16.50;99.90;;;;;;5066884;28;20135;-84
2022/10/04 11:48:31;;;;;;;1.75;0.80;;;16.40;99.90;;;;;;5069048;28;20032;-84
2022/10/04 11:51:21;;;;;;;2.88;0.90;;;16.40;99.90;;;;;;5063363;28;20469;-84
2022/10/04 11:54:02;;;;;;;3.53;0.75;;;16.30;99.90;;;;;;5069559;28;20610;-85
2022/10/04 11:57:01;;;;;;;4.20;0.70;;;16.10;99.90;;;;;;5076290;28;20108;-85
2022/10/04 11:59:58;;;;;;;2.13;0.70;;;16.30;99.90;;;;;;5084716;28;20037;-85
2022/10/04 12:02:46;;;;;;;1.77;0.90;;;16.40;99.90;;;;;;5066128;28;20119;-85
2022/10/04 12:05:31;;;;;;;2.15;0.70;;;16.40;99.90;;;;;;5065912;28;20029;-85
2022/10/04 12:08:23;;;;;;;5.45;0.85;;;16.80;99.90;;;;;;5071485;28;20013;-84
2022/10/04 12:11:14;;;;;;;1.85;0.90;;;17.10;99.90;;;;;;5069030;28;20045;-85
2022/10/04 12:13:48;;;;;;;3.22;0.98;;;17.10;99.90;;;;;;5068471;28;20032;-84
2022/10/04 12:16:28;;;;;;;6.53;1.02;;;17.40;99.90;;;;;;5070665;28;20071;-84
2022/10/04 12:19:38;;;;;;;2.67;0.90;;;17.50;99.90;;;;;;5072278;28;20027;-84
2022/10/04 12:22:22;;;;;;;1.48;0.73;;;17.50;99.90;;;;;;5071997;28;20070;-84
2022/10/04 12:25:06;;;;;;;2.15;0.77;;;17.30;99.90;;;;;;5092121;22;20534;-84
2022/10/04 12:27:41;;;;;;;1.95;0.70;;;17.40;99.90;;;;;;5066031;28;20441;-85
2022/10/04 12:30:29;;;;;;;3.05;0.98;;;17.50;99.90;;;;;;5085431;28;20083;-87
2022/10/04 12:33:21;;;;;;;2.83;0.93;;;17.60;99.90;;;;;;5055447;28;20024;-86
2022/10/04 12:35:56;;;;;;;2.17;0.68;;;17.90;99.90;;;;;;5050146;28;20107;-86
2022/10/04 12:38:40;;;;;;;3.17;1.30;;;18.20;99.90;;;;;;5055559;28;20060;-86
2022/10/04 12:41:23;;;;;;;1.65;0.70;;;18.10;99.90;;;;;;5064377;28;20024;-86
2022/10/04 12:43:59;;;;;;;1.55;0.65;;;18.00;99.90;;;;;;5070010;28;20040;-85
2022/10/04 12:46:39;;;;;;;2.13;0.90;;;18.00;99.90;;;;;;5080130;28;20039;-85
2022/10/04 12:49:35;;;;;;;1.60;0.60;;;17.80;99.90;;;;;;5073599;28;20022;-85
2022/10/04 12:52:17;;;;;;;1.92;0.73;;;18.10;99.90;;;;;;5058030;28;20036;-85
2022/10/04 12:55:13;;;;;;;1.70;0.70;;;18.40;99.90;;;;;;5075686;28;20042;-85
2022/10/04 12:57:58;;;;;;;2.00;0.77;;;18.40;99.90;;;;;;5073897;28;20032;-85
2022/10/04 13:00:26;;;;;;;1.40;0.52;;;18.60;99.90;;;;;;5073326;28;20814;-85
2022/10/04 13:03:19;;;;;;;0.95;0.47;;;18.80;99.90;;;;;;5073094;28;20448;-85
2022/10/04 13:06:01;;;;;;;1.20;0.50;;;18.90;99.90;;;;;;5056851;28;20027;-86
2022/10/04 13:08:45;;;;;;;2.10;0.70;;;19.10;99.90;;;;;;5076468;28;20100;-84
2022/10/04 13:11:44;;;;;;;2.28;0.70;;;19.30;99.90;;;;;;5075256;28;20020;-84
2022/10/04 13:14:55;;;;;;;2.30;0.57;;;19.50;99.90;;;;;;5082521;28;20020;-84
2022/10/04 13:17:37;;;;;;;2.70;0.80;;;19.80;99.90;;;;;;4996580;28;20037;-85
2022/10/04 13:20:21;;;;;;;1.40;0.60;;;19.90;99.90;;;;;;5046816;28;20099;-85
2022/10/04 13:23:12;;;;;;;1.75;0.52;;;20.00;99.90;;;;;;5079085;28;20032;-85
2022/10/04 13:25:50;;;;;;;2.13;0.55;;;20.20;99.90;;;;;;5054023;28;20103;-84
2022/10/04 13:28:47;;;;;;;1.77;0.60;;;20.00;99.90;;;;;;5061600;28;20020;-85
2022/10/04 13:31:33;;;;;;;1.60;0.70;;;20.00;99.90;;;;;;5077520;28;20024;-85
2022/10/04 13:34:21;;;;;;;1.30;0.50;;;20.30;99.90;;;;;;5080453;28;20020;-85
2022/10/04 13:37:00;;;;;;;2.00;0.60;;;20.50;99.90;;;;;;5079261;28;20033;-85
2022/10/04 13:39:41;;;;;;;2.08;0.80;;;20.70;99.90;;;;;;5059024;28;20028;-86
2022/10/04 13:42:36;;;;;;;4.03;0.80;;;20.70;99.90;;;;;;5074825;28;20028;-86
2022/10/04 13:45:33;;;;;;;1.75;0.52;;;20.90;99.90;;;;;;5055714;28;20081;-86
2022/10/04 13:48:21;;;;;;;1.38;0.43;;;20.50;99.90;;;;;;5072473;28;20043;-87
2022/10/04 13:50:47;;;;;;;2.40;0.52;;;20.60;99.90;;;;;;5057289;28;20019;-87
2022/10/04 13:56:36;;;;;;;2.00;0.55;;;21.50;99.90;;;;;;5085350;28;20404;-86
2022/10/04 13:59:34;;;;;;;4.07;0.60;;;21.80;99.90;;;;;;5079112;28;20033;-86
2022/10/04 14:02:20;;;;;;;2.13;0.60;;;22.40;99.90;;;;;;5059259;28;20028;-87
2022/10/04 14:05:17;;;;;;;2.35;0.52;;;22.20;99.90;;;;;;5078714;28;20025;-86
2022/10/04 14:08:16;;;;;;;1.65;0.70;;;22.60;99.90;;;;;;5054960;28;20028;-87
2022/10/04 14:10:47;;;;;;;5.70;0.68;;;23.10;99.90;;;;;;5048072;28;20031;-88
2022/10/04 14:13:44;;;;;;;2.30;0.82;;;23.60;99.90;;;;;;5073882;28;20084;-87
2022/10/04 14:16:42;;;;;;;2.75;0.77;;;23.90;99.90;;;;;;5085862;28;20023;-86
2022/10/04 14:19:26;;;;;;;1.25;0.50;;;24.10;99.20;;;;;;5069448;28;20519;-88
2022/10/04 14:22:26;;;;;;;2.67;0.60;;;24.60;99.00;;;;;;5059487;28;20024;-87